Time;durP1;ratioP1;P1;durP2;ratioP2;P2;SDS_P1;SDS_P2;PMS_P1;PMS_P2;Temp;Humidity;BMP_temperature;BMP_pressure;BME280_temperature;BME280_humidity;BME280_pressure;Samples;Min_cycle;Max_cycle;Signal;HPM_P1;HPM_P2
2024/01/21 00:01:17;;;;;;;12.00;8.52;;;20.60;25.30;;;;;;4898877;29;20056;-61
2024/01/21 00:03:44;;;;;;;10.30;8.25;;;20.60;25.40;;;;;;4899859;29;20059;-61
2024/01/21 00:06:11;;;;;;;11.15;8.48;;;20.60;25.30;;;;;;4900328;29;20056;-61
2024/01/21 00:08:39;;;;;;;10.07;7.78;;;20.50;25.30;;;;;;4898515;29;20063;-61
2024/01/21 00:11:07;;;;;;;10.20;8.40;;;20.50;25.30;;;;;;4897345;29;20106;-61
2024/01/21 00:13:36;;;;;;;10.70;8.32;;;20.50;25.30;;;;;;4897425;29;20756;-61
2024/01/21 00:16:05;;;;;;;11.75;8.55;;;20.40;25.30;;;;;;4899523;29;20072;-62
2024/01/21 00:18:33;;;;;;;13.02;9.10;;;20.40;25.20;;;;;;4898578;29;20071;-62
2024/01/21 00:21:00;;;;;;;10.93;8.48;;;20.30;25.20;;;;;;4899699;29;20048;-61
2024/01/21 00:23:28;;;;;;;12.55;8.32;;;20.40;25.30;;;;;;4898696;29;20486;-61
2024/01/21 00:25:56;;;;;;;12.93;8.82;;;20.30;25.20;;;;;;4896657;29;20534;-61
2024/01/21 00:28:23;;;;;;;11.60;8.70;;;20.20;25.20;;;;;;4899126;29;20064;-59
2024/01/21 00:30:50;;;;;;;11.73;8.68;;;20.20;25.20;;;;;;4897611;29;20067;-59
2024/01/21 00:33:21;;;;;;;11.52;9.00;;;20.20;25.20;;;;;;4903043;29;20057;-62
2024/01/21 00:35:48;;;;;;;11.68;8.93;;;20.10;25.20;;;;;;4898495;29;20118;-62
2024/01/21 00:38:16;;;;;;;11.95;8.88;;;20.10;25.30;;;;;;4899297;29;20560;-61
2024/01/21 00:40:43;;;;;;;10.98;8.85;;;20.10;25.30;;;;;;4899555;29;20056;-62
2024/01/21 00:43:10;;;;;;;13.07;9.05;;;20.00;25.40;;;;;;4897356;29;20067;-61
2024/01/21 00:45:37;;;;;;;12.90;9.02;;;20.00;25.40;;;;;;4898267;29;20067;-60
2024/01/21 00:48:05;;;;;;;11.77;9.05;;;20.10;25.50;;;;;;4901325;29;20067;-58
2024/01/21 00:50:34;;;;;;;12.02;8.80;;;20.00;25.50;;;;;;4898694;29;20060;-60
2024/01/21 00:53:01;;;;;;;10.88;8.63;;;20.10;25.60;;;;;;4899786;29;20051;-59
2024/01/21 00:55:28;;;;;;;13.07;9.10;;;20.20;25.70;;;;;;4900681;29;20063;-58
2024/01/21 00:57:56;;;;;;;12.68;9.40;;;20.20;25.70;;;;;;4896799;29;20060;-59
2024/01/21 01:00:25;;;;;;;14.32;9.55;;;20.20;25.70;;;;;;4898727;29;20063;-58
2024/01/21 01:02:53;;;;;;;10.65;8.52;;;20.30;25.70;;;;;;4902001;29;20076;-59
2024/01/21 01:05:20;;;;;;;11.85;8.80;;;20.30;25.70;;;;;;4899113;29;20520;-59
2024/01/21 01:07:48;;;;;;;17.58;8.45;;;20.40;25.70;;;;;;4897776;29;20064;-58
2024/01/21 01:10:16;;;;;;;11.35;8.60;;;20.40;25.60;;;;;;4896688;29;20493;-59
2024/01/21 01:12:43;;;;;;;11.95;8.48;;;20.40;25.60;;;;;;4897869;29;20507;-59
2024/01/21 01:15:12;;;;;;;11.80;9.02;;;20.40;25.60;;;;;;4896627;29;20112;-59
2024/01/21 01:17:39;;;;;;;12.52;8.77;;;20.50;25.50;;;;;;4897961;29;20071;-58
2024/01/21 01:20:08;;;;;;;13.77;9.32;;;20.50;25.50;;;;;;4897361;29;20048;-58
2024/01/21 01:22:35;;;;;;;11.55;8.65;;;20.50;25.50;;;;;;4900194;29;20500;-59
2024/01/21 01:25:04;;;;;;;14.07;8.98;;;20.50;25.40;;;;;;4896564;29;20071;-58
2024/01/21 01:27:31;;;;;;;10.32;8.18;;;20.50;25.40;;;;;;4895935;29;20425;-59
2024/01/21 01:29:58;;;;;;;11.52;9.15;;;20.40;25.30;;;;;;4897137;29;20056;-58
2024/01/21 01:32:25;;;;;;;12.18;8.70;;;20.40;25.20;;;;;;4894752;29;20049;-58
2024/01/21 01:34:54;;;;;;;11.93;9.15;;;20.40;25.20;;;;;;4896019;29;20059;-59
2024/01/21 01:37:22;;;;;;;12.63;9.02;;;20.40;25.10;;;;;;4896463;29;20406;-58
2024/01/21 01:39:49;;;;;;;10.70;8.55;;;20.40;25.10;;;;;;4897612;29;20091;-59
2024/01/21 01:42:17;;;;;;;13.90;9.60;;;20.30;25.10;;;;;;4898719;29;20067;-59
2024/01/21 01:44:45;;;;;;;12.05;8.75;;;20.30;25.00;;;;;;4898986;29;20071;-58
2024/01/21 01:47:12;;;;;;;10.23;8.18;;;20.30;25.00;;;;;;4894558;29;20064;-59
2024/01/21 01:49:41;;;;;;;11.63;8.75;;;20.20;25.00;;;;;;4898000;29;20060;-59
2024/01/21 01:52:12;;;;;;;10.88;8.80;;;20.20;25.00;;;;;;4894329;29;20052;-59
2024/01/21 01:54:41;;;;;;;10.77;8.52;;;20.20;25.00;;;;;;4893208;29;20072;-58
2024/01/21 01:57:10;;;;;;;11.00;8.70;;;20.10;25.00;;;;;;4883962;29;20414;-61
2024/01/21 01:59:39;;;;;;;11.82;8.57;;;20.10;25.00;;;;;;4885919;29;20065;-61
2024/01/21 02:02:07;;;;;;;10.63;7.85;;;20.00;25.00;;;;;;4886587;29;20048;-61
2024/01/21 02:04:34;;;;;;;11.75;8.48;;;20.00;25.00;;;;;;4885946;29;20060;-62
2024/01/21 02:07:01;;;;;;;9.95;7.70;;;19.90;25.00;;;;;;4887020;29;21043;-62
2024/01/21 02:09:29;;;;;;;11.07;8.13;;;19.90;25.10;;;;;;4885780;29;20052;-62
2024/01/21 02:11:57;;;;;;;13.20;8.15;;;19.90;25.10;;;;;;4885054;29;20048;-61
2024/01/21 02:14:24;;;;;;;11.15;7.95;;;19.90;25.20;;;;;;4886835;29;20059;-61
2024/01/21 02:16:53;;;;;;;10.25;7.65;;;19.90;25.30;;;;;;4885781;29;20057;-61
2024/01/21 02:19:26;;;;;;;11.05;7.97;;;19.90;25.30;;;;;;4887362;29;20063;-61
2024/01/21 02:21:55;;;;;;;12.60;8.35;;;20.00;25.40;;;;;;4877239;29;20057;-61
2024/01/21 02:24:30;;;;;;;9.18;7.35;;;20.00;25.50;;;;;;4887476;29;20076;-62
2024/01/21 02:26:57;;;;;;;10.82;7.68;;;20.10;25.50;;;;;;4886265;29;20055;-60
2024/01/21 02:29:24;;;;;;;10.25;7.70;;;20.10;25.50;;;;;;4879496;29;20052;-62
2024/01/21 02:31:52;;;;;;;11.00;7.63;;;20.20;26.00;;;;;;4885214;29;20057;-61
2024/01/21 02:34:19;;;;;;;10.35;7.78;;;20.20;25.50;;;;;;4884930;29;20501;-62
2024/01/21 02:36:46;;;;;;;9.68;6.88;;;20.20;25.90;;;;;;4880891;29;20386;-62
2024/01/21 02:39:14;;;;;;;9.50;7.40;;;20.20;25.50;;;;;;4885578;29;20533;-61
2024/01/21 02:41:42;;;;;;;10.10;7.53;;;20.30;25.50;;;;;;4881128;29;20064;-61
2024/01/21 02:44:09;;;;;;;10.07;7.68;;;20.30;25.50;;;;;;4884029;29;20560;-62
2024/01/21 02:46:36;;;;;;;10.50;6.88;;;20.30;25.40;;;;;;4878640;29;20425;-62
2024/01/21 02:49:04;;;;;;;9.70;7.32;;;20.40;25.40;;;;;;4887239;29;20624;-61
2024/01/21 02:51:31;;;;;;;9.45;7.55;;;20.30;25.40;;;;;;4885314;29;20052;-62
2024/01/21 02:53:57;;;;;;;10.25;8.05;;;20.30;25.40;;;;;;4887702;29;20505;-62
2024/01/21 02:56:26;;;;;;;9.75;7.00;;;20.30;25.40;;;;;;4895810;29;20060;-62
2024/01/21 02:58:54;;;;;;;9.75;7.20;;;20.30;25.30;;;;;;4898418;29;20517;-62
2024/01/21 03:01:22;;;;;;;8.55;6.55;;;20.30;25.30;;;;;;4895125;29;20055;-61
2024/01/21 03:03:49;;;;;;;9.55;7.20;;;20.30;25.30;;;;;;4896525;29;20068;-63
2024/01/21 03:06:17;;;;;;;8.10;6.75;;;20.30;25.30;;;;;;4897485;29;20055;-58
2024/01/21 03:08:44;;;;;;;9.82;7.30;;;20.20;25.30;;;;;;4897556;29;20328;-58
2024/01/21 03:11:11;;;;;;;9.98;7.40;;;20.20;25.30;;;;;;4893623;29;20067;-59
2024/01/21 03:13:38;;;;;;;9.63;7.35;;;20.20;25.20;;;;;;4896508;29;20083;-58
2024/01/21 03:16:07;;;;;;;10.00;7.53;;;20.10;25.20;;;;;;4895866;29;20060;-58
2024/01/21 03:18:38;;;;;;;9.55;7.10;;;20.10;25.20;;;;;;4896844;29;20064;-59
2024/01/21 03:21:08;;;;;;;10.38;7.57;;;20.00;25.20;;;;;;4896252;29;20067;-58
2024/01/21 03:23:36;;;;;;;11.73;7.32;;;20.00;25.20;;;;;;4884800;29;20453;-60
2024/01/21 03:26:03;;;;;;;10.43;7.18;;;20.00;25.20;;;;;;4895390;29;20053;-59
2024/01/21 03:28:30;;;;;;;9.80;7.65;;;19.90;25.10;;;;;;4896500;29;20071;-59
2024/01/21 03:30:57;;;;;;;10.55;7.05;;;19.90;25.20;;;;;;4894836;29;20061;-58
2024/01/21 03:33:27;;;;;;;10.27;7.82;;;19.90;25.30;;;;;;4897745;29;20071;-60
2024/01/21 03:35:54;;;;;;;10.25;7.47;;;19.90;25.30;;;;;;4895539;29;20391;-58
2024/01/21 03:38:21;;;;;;;9.38;6.97;;;19.80;25.40;;;;;;4894309;29;20521;-58
2024/01/21 03:40:49;;;;;;;9.88;7.32;;;19.90;25.50;;;;;;4894001;29;20425;-58
2024/01/21 03:43:17;;;;;;;9.95;6.97;;;19.90;25.50;;;;;;4898268;29;20064;-58
2024/01/21 03:45:45;;;;;;;10.57;7.32;;;19.90;25.60;;;;;;4896704;29;20067;-59
2024/01/21 03:48:12;;;;;;;9.07;6.97;;;20.00;25.60;;;;;;4895829;29;20399;-60
2024/01/21 03:50:40;;;;;;;8.90;7.00;;;20.00;25.60;;;;;;4896284;29;20401;-58
2024/01/21 03:53:08;;;;;;;10.07;7.63;;;20.10;25.60;;;;;;4894715;29;20060;-58
2024/01/21 03:55:35;;;;;;;10.32;7.55;;;20.10;25.60;;;;;;4886662;29;20443;-60
2024/01/21 03:58:02;;;;;;;9.73;7.35;;;20.20;25.60;;;;;;4887349;29;20094;-58
2024/01/21 04:00:30;;;;;;;9.25;7.13;;;20.20;25.60;;;;;;4889263;29;20056;-58
2024/01/21 04:02:57;;;;;;;8.80;6.78;;;20.20;25.60;;;;;;4887155;29;20049;-58
2024/01/21 04:05:24;;;;;;;10.02;7.03;;;20.20;25.50;;;;;;4886907;29;21089;-59
2024/01/21 04:07:52;;;;;;;9.80;7.13;;;20.30;25.50;;;;;;4889202;29;20489;-58
2024/01/21 04:10:20;;;;;;;10.43;7.43;;;20.30;25.50;;;;;;4888600;29;20061;-59
2024/01/21 04:12:47;;;;;;;8.85;7.05;;;20.30;25.40;;;;;;4889316;29;20449;-58
2024/01/21 04:15:14;;;;;;;9.27;7.32;;;20.30;25.30;;;;;;4881671;29;20061;-58
2024/01/21 04:17:41;;;;;;;8.80;6.88;;;20.30;25.30;;;;;;4885311;29;20063;-62
2024/01/21 04:20:10;;;;;;;9.65;6.97;;;20.30;25.30;;;;;;4888772;29;20083;-62
2024/01/21 04:22:38;;;;;;;9.52;7.03;;;20.20;25.20;;;;;;4890315;29;20063;-61
2024/01/21 04:25:07;;;;;;;9.88;7.07;;;20.20;25.20;;;;;;4891537;29;20524;-61
2024/01/21 04:27:34;;;;;;;8.43;6.65;;;20.20;25.20;;;;;;4886921;29;20053;-60
2024/01/21 04:30:01;;;;;;;10.40;7.13;;;20.20;25.20;;;;;;4888693;29;20060;-62
2024/01/21 04:32:29;;;;;;;10.75;7.78;;;20.20;25.20;;;;;;4886729;29;20426;-61
2024/01/21 04:34:56;;;;;;;9.55;6.72;;;20.10;25.10;;;;;;4890993;29;20064;-62
2024/01/21 04:37:23;;;;;;;18.27;7.35;;;20.10;25.20;;;;;;4888230;29;20052;-62
2024/01/21 04:39:50;;;;;;;9.88;7.32;;;20.10;25.20;;;;;;4889815;29;20060;-64
2024/01/21 04:42:19;;;;;;;12.60;7.32;;;20.10;25.20;;;;;;4888335;29;20525;-61
2024/01/21 04:44:46;;;;;;;15.43;9.77;;;20.00;25.30;;;;;;4889695;29;20069;-61
2024/01/21 04:47:13;;;;;;;13.82;8.40;;;20.00;25.10;;;;;;4884680;29;20616;-59
2024/01/21 04:49:41;;;;;;;12.90;8.75;;;20.00;25.00;;;;;;4890143;29;20061;-63
2024/01/21 04:52:08;;;;;;;13.32;8.85;;;19.90;24.90;;;;;;4889439;29;20064;-62
2024/01/21 04:54:35;;;;;;;11.13;7.97;;;19.90;24.90;;;;;;4898025;29;20064;-63
2024/01/21 04:57:02;;;;;;;12.63;8.60;;;19.90;25.00;;;;;;4907577;29;20382;-64
2024/01/21 04:59:31;;;;;;;10.75;8.00;;;19.90;25.00;;;;;;4908782;29;20515;-61
2024/01/21 05:01:58;;;;;;;11.10;7.97;;;19.90;25.10;;;;;;4902572;29;20060;-63
2024/01/21 05:04:25;;;;;;;12.90;7.50;;;19.90;25.20;;;;;;4909864;29;20067;-63
2024/01/21 05:06:52;;;;;;;10.40;7.60;;;19.90;25.20;;;;;;4908389;29;20082;-63
2024/01/21 05:09:20;;;;;;;12.93;7.10;;;19.90;25.30;;;;;;4910312;29;20068;-60
2024/01/21 05:11:47;;;;;;;11.73;6.68;;;20.00;25.50;;;;;;4906681;29;20417;-62
2024/01/21 05:14:14;;;;;;;11.35;7.72;;;20.00;25.50;;;;;;4908379;29;20051;-63
2024/01/21 05:16:43;;;;;;;14.82;7.15;;;20.10;25.70;;;;;;4908407;29;20060;-56
2024/01/21 05:19:11;;;;;;;9.95;7.25;;;20.10;25.70;;;;;;4909881;29;20099;-61
2024/01/21 05:21:38;;;;;;;13.63;7.30;;;20.20;25.80;;;;;;4910522;29;20071;-61
2024/01/21 05:24:06;;;;;;;19.30;8.48;;;20.20;25.80;;;;;;4907790;29;20409;-63
2024/01/21 05:26:33;;;;;;;104.45;60.22;;;20.20;25.70;;;;;;4903331;29;20075;-60
2024/01/21 05:29:00;;;;;;;86.80;55.20;;;20.30;25.30;;;;;;4908536;29;20067;-59
2024/01/21 05:31:32;;;;;;;62.00;39.05;;;20.30;25.00;;;;;;4909054;29;20059;-60
2024/01/21 05:34:00;;;;;;;48.28;29.90;;;20.30;25.00;;;;;;4909427;29;20056;-60
2024/01/21 05:36:27;;;;;;;40.90;25.58;;;20.30;25.00;;;;;;4905342;29;20056;-61
2024/01/21 05:38:54;;;;;;;36.30;23.05;;;20.30;25.10;;;;;;4897072;29;20063;-69
2024/01/21 05:41:22;;;;;;;36.22;21.98;;;20.30;25.10;;;;;;4902968;29;20067;-61
2024/01/21 05:43:49;;;;;;;30.95;19.98;;;20.30;25.10;;;;;;4899850;29;20071;-57
2024/01/21 05:46:17;;;;;;;29.45;19.45;;;20.30;25.20;;;;;;4900842;29;20056;-58
2024/01/21 05:48:44;;;;;;;30.55;17.52;;;20.30;25.20;;;;;;4897553;29;20053;-60
2024/01/21 05:51:13;;;;;;;26.52;17.48;;;20.30;25.20;;;;;;4898357;29;20425;-59
2024/01/21 05:53:41;;;;;;;41.78;17.55;;;20.20;25.30;;;;;;4900910;29;20429;-58
2024/01/21 05:56:09;;;;;;;23.70;15.70;;;20.30;25.30;;;;;;4899933;29;20059;-61
2024/01/21 05:58:37;;;;;;;38.65;23.90;;;20.20;25.30;;;;;;4898073;29;20068;-58
2024/01/21 06:01:04;;;;;;;173.27;98.55;;;20.20;25.20;;;;;;4897875;29;20425;-60
2024/01/21 06:03:31;;;;;;;124.18;72.72;;;20.20;24.80;;;;;;4903817;29;20063;-58
2024/01/21 06:05:58;;;;;;;92.13;53.88;;;20.20;24.30;;;;;;4908445;29;20044;-58
2024/01/21 06:08:28;;;;;;;77.25;45.38;;;20.10;24.30;;;;;;4908006;29;20092;-58
2024/01/21 06:10:55;;;;;;;64.68;40.28;;;20.00;24.50;;;;;;4907642;29;20056;-55
2024/01/21 06:13:22;;;;;;;57.83;37.20;;;20.00;24.60;;;;;;4905736;29;20060;-57
2024/01/21 06:15:50;;;;;;;55.00;35.03;;;20.00;24.70;;;;;;4906495;29;20071;-60
2024/01/21 06:18:17;;;;;;;55.05;31.40;;;20.00;24.80;;;;;;4910865;29;20062;-59
2024/01/21 06:20:45;;;;;;;48.08;27.73;;;20.00;25.00;;;;;;4908756;29;20060;-59
2024/01/21 06:23:12;;;;;;;42.55;25.70;;;19.90;25.10;;;;;;4906612;29;20052;-57
2024/01/21 06:25:50;;;;;;;36.88;24.00;;;20.00;25.30;;;;;;4907078;29;20481;-57
2024/01/21 06:28:17;;;;;;;36.65;22.95;;;20.00;25.80;;;;;;4907449;29;20409;-56
2024/01/21 06:30:45;;;;;;;33.63;19.48;;;20.00;25.40;;;;;;4940962;23;20054;-58
2024/01/21 06:33:12;;;;;;;27.98;17.60;;;20.10;25.50;;;;;;4941895;28;20404;-58
2024/01/21 06:35:39;;;;;;;26.02;16.73;;;20.10;25.50;;;;;;4945644;28;20062;-58
2024/01/21 06:38:07;;;;;;;87.25;45.88;;;20.20;25.30;;;;;;4947192;29;20055;-59
2024/01/21 06:40:35;;;;;;;70.07;42.10;;;20.20;25.10;;;;;;4947396;28;20078;-56
2024/01/21 06:43:04;;;;;;;53.55;32.17;;;20.20;25.10;;;;;;4945510;28;20059;-59
2024/01/21 06:45:31;;;;;;;39.08;25.10;;;20.30;25.20;;;;;;4950110;28;20515;-57
2024/01/21 06:47:58;;;;;;;37.00;23.25;;;20.30;25.30;;;;;;4948255;28;20055;-63
2024/01/21 06:50:27;;;;;;;32.85;19.77;;;20.40;25.40;;;;;;4943375;28;20058;-60
2024/01/21 06:52:54;;;;;;;31.10;19.02;;;20.40;25.40;;;;;;4942264;28;20636;-62
2024/01/21 06:55:21;;;;;;;31.95;18.95;;;20.40;25.30;;;;;;4945649;28;20062;-59
2024/01/21 06:57:48;;;;;;;24.88;17.05;;;20.50;25.30;;;;;;4946446;28;20058;-58
2024/01/21 07:00:18;;;;;;;24.25;16.00;;;20.50;25.30;;;;;;4943102;28;20082;-61
2024/01/21 07:02:45;;;;;;;23.77;14.88;;;20.50;25.40;;;;;;4938127;28;20493;-60
2024/01/21 07:05:12;;;;;;;22.25;14.70;;;20.50;25.30;;;;;;4943366;28;20062;-60
2024/01/21 07:07:40;;;;;;;20.75;13.82;;;20.50;25.20;;;;;;4946608;28;20084;-61
2024/01/21 07:10:32;;;;;;;20.05;13.40;;;20.50;25.20;;;;;;4944598;28;20484;-61
2024/01/21 07:13:00;;;;;;;20.40;13.13;;;20.50;25.20;;;;;;4940948;28;20399;-61
2024/01/21 07:15:28;;;;;;;23.23;12.70;;;20.50;25.20;;;;;;4945317;28;20056;-60
2024/01/21 07:17:55;;;;;;;18.50;11.18;;;20.50;25.20;;;;;;4941072;28;20066;-59
2024/01/21 07:20:22;;;;;;;17.73;11.20;;;20.50;25.20;;;;;;4944702;28;20471;-60
2024/01/21 07:22:50;;;;;;;20.40;11.55;;;20.40;25.30;;;;;;4942820;29;20062;-58
2024/01/21 07:25:17;;;;;;;18.08;11.48;;;20.40;25.30;;;;;;4942282;28;20054;-59
2024/01/21 07:27:44;;;;;;;17.17;11.23;;;20.40;25.30;;;;;;4942566;28;20059;-60
2024/01/21 07:30:13;;;;;;;16.65;10.05;;;20.30;25.10;;;;;;4943039;28;20077;-60
2024/01/21 07:32:42;;;;;;;14.55;10.35;;;20.30;25.50;;;;;;4942863;28;20424;-60
2024/01/21 07:35:10;;;;;;;15.13;9.38;;;20.30;25.10;;;;;;4946011;29;20071;-60
2024/01/21 07:37:37;;;;;;;13.48;8.98;;;20.20;25.10;;;;;;4948301;29;20054;-60
2024/01/21 07:40:05;;;;;;;14.02;9.38;;;20.20;25.10;;;;;;4947447;28;20055;-60
2024/01/21 07:42:32;;;;;;;13.30;9.30;;;20.10;25.10;;;;;;4946425;28;20054;-62
2024/01/21 07:45:00;;;;;;;12.00;8.85;;;20.10;25.10;;;;;;4945135;28;20066;-61
2024/01/21 07:47:27;;;;;;;12.40;8.73;;;20.10;25.10;;;;;;4949156;28;20070;-58
2024/01/21 07:49:55;;;;;;;12.32;8.35;;;20.00;25.20;;;;;;4947142;28;20059;-58
2024/01/21 07:52:22;;;;;;;11.05;7.97;;;20.00;25.30;;;;;;4945549;28;20424;-61
2024/01/21 07:54:49;;;;;;;13.02;7.88;;;20.00;25.40;;;;;;4948008;28;20542;-59
2024/01/21 07:57:17;;;;;;;11.27;7.43;;;20.10;25.60;;;;;;4946941;28;20055;-59
2024/01/21 07:59:44;;;;;;;10.13;7.30;;;20.10;25.70;;;;;;4944693;28;20051;-59
2024/01/21 08:02:11;;;;;;;11.80;7.90;;;20.20;25.80;;;;;;4943305;28;20059;-59
2024/01/21 08:04:38;;;;;;;11.10;7.70;;;20.20;25.70;;;;;;4945788;28;20055;-57
2024/01/21 08:07:07;;;;;;;10.00;6.88;;;20.20;25.70;;;;;;4948881;28;20558;-58
2024/01/21 08:09:34;;;;;;;9.75;7.53;;;20.30;25.80;;;;;;4946018;28;21634;-60
2024/01/21 08:12:01;;;;;;;12.65;7.00;;;20.30;25.80;;;;;;4942228;29;20059;-59
2024/01/21 08:14:30;;;;;;;12.13;6.72;;;20.40;25.80;;;;;;4944491;28;20055;-57
2024/01/21 08:16:57;;;;;;;14.35;7.40;;;20.40;25.90;;;;;;4948022;28;20051;-58
2024/01/21 08:19:24;;;;;;;11.95;7.15;;;20.50;25.90;;;;;;4943624;28;20059;-58
2024/01/21 08:21:51;;;;;;;18.50;6.75;;;20.50;25.90;;;;;;4944962;28;20062;-57
2024/01/21 08:24:20;;;;;;;16.48;6.85;;;20.50;25.90;;;;;;4945020;29;20051;-62
2024/01/21 08:26:47;;;;;;;10.13;7.07;;;20.60;26.00;;;;;;4944625;29;20051;-57
2024/01/21 08:29:14;;;;;;;12.07;7.07;;;20.60;25.90;;;;;;4943565;28;20051;-60
2024/01/21 08:31:45;;;;;;;15.73;9.30;;;20.70;25.90;;;;;;4943098;28;20078;-59
2024/01/21 08:34:12;;;;;;;13.05;10.10;;;20.70;25.00;;;;;;4944934;28;20059;-57
2024/01/21 08:36:39;;;;;;;24.80;10.13;;;20.60;23.90;;;;;;4941988;28;20047;-59
2024/01/21 08:39:09;;;;;;;22.05;9.43;;;20.50;23.90;;;;;;4949744;28;20055;-58
2024/01/21 08:41:37;;;;;;;18.85;8.13;;;20.40;24.30;;;;;;4950268;28;20062;-58
2024/01/21 08:44:06;;;;;;;32.70;8.32;;;20.20;24.70;;;;;;4949091;28;20055;-58
2024/01/21 08:46:33;;;;;;;15.63;7.15;;;20.10;24.90;;;;;;4948060;28;20051;-64
2024/01/21 08:49:01;;;;;;;10.23;6.97;;;20.10;25.10;;;;;;4950389;28;20497;-60
2024/01/21 08:51:29;;;;;;;11.25;7.13;;;20.00;25.20;;;;;;4949906;28;20055;-61
2024/01/21 08:53:56;;;;;;;12.25;6.70;;;20.00;25.20;;;;;;4951065;28;20456;-60
2024/01/21 08:56:24;;;;;;;10.77;6.80;;;20.00;25.40;;;;;;4951237;28;20476;-64
2024/01/21 08:58:54;;;;;;;10.98;6.68;;;19.90;25.40;;;;;;4947164;28;20058;-63
2024/01/21 09:01:21;;;;;;;9.88;6.70;;;19.90;25.40;;;;;;4948673;28;20098;-64
2024/01/21 09:03:48;;;;;;;9.55;6.68;;;19.80;25.40;;;;;;4949419;28;20059;-64
2024/01/21 09:06:15;;;;;;;13.13;6.75;;;19.80;25.50;;;;;;4949830;28;20063;-64
2024/01/21 09:08:43;;;;;;;10.20;6.15;;;19.80;25.50;;;;;;4956403;28;20399;-63
2024/01/21 09:11:10;;;;;;;15.95;5.80;;;19.80;25.50;;;;;;4942944;29;20054;-61
2024/01/21 09:13:37;;;;;;;21.35;6.63;;;19.80;25.60;;;;;;4953688;28;20535;-65
2024/01/21 09:16:07;;;;;;;10.07;6.10;;;19.70;25.70;;;;;;4952094;28;20665;-63
2024/01/21 09:18:34;;;;;;;12.27;5.80;;;19.70;25.80;;;;;;4948440;28;20062;-65
2024/01/21 09:21:02;;;;;;;8.68;6.40;;;19.70;25.80;;;;;;4951994;28;20062;-65
2024/01/21 09:23:29;;;;;;;10.50;5.88;;;19.80;25.90;;;;;;4945160;28;20059;-62
2024/01/21 09:25:56;;;;;;;15.90;5.65;;;19.80;26.00;;;;;;4945226;28;20050;-62
2024/01/21 09:28:24;;;;;;;18.58;5.50;;;19.80;26.10;;;;;;4945254;28;20051;-62
2024/01/21 09:30:51;;;;;;;10.73;5.60;;;19.90;26.10;;;;;;4946856;28;20058;-62
2024/01/21 09:33:20;;;;;;;9.73;5.40;;;20.00;26.10;;;;;;4944328;28;20062;-62
2024/01/21 09:35:49;;;;;;;10.82;5.43;;;20.00;26.10;;;;;;4946936;29;20062;-62
2024/01/21 09:38:18;;;;;;;8.85;5.40;;;20.00;26.10;;;;;;4947454;28;21264;-62
2024/01/21 09:40:51;;;;;;;11.02;5.70;;;20.10;26.10;;;;;;4948358;28;20066;-62
2024/01/21 09:43:19;;;;;;;8.33;5.63;;;20.20;26.20;;;;;;4947962;29;20070;-62
2024/01/21 09:45:46;;;;;;;8.95;6.65;;;20.20;26.10;;;;;;4945238;28;20411;-62
2024/01/21 09:48:14;;;;;;;12.40;6.90;;;20.30;26.10;;;;;;4942851;28;20404;-62
2024/01/21 09:50:44;;;;;;;15.73;6.80;;;20.30;26.10;;;;;;4944334;28;20047;-62
2024/01/21 09:53:11;;;;;;;8.90;6.00;;;20.40;26.10;;;;;;4946459;28;20511;-62
2024/01/21 09:55:38;;;;;;;13.98;6.07;;;20.40;26.00;;;;;;4947412;28;20058;-62
2024/01/21 09:58:09;;;;;;;8.60;5.53;;;20.50;26.00;;;;;;4945708;28;20047;-62
2024/01/21 10:00:37;;;;;;;8.73;5.93;;;20.50;26.00;;;;;;4944612;29;20052;-62
2024/01/21 10:03:05;;;;;;;9.32;5.20;;;20.60;26.10;;;;;;4945095;28;20051;-62
2024/01/21 10:05:32;;;;;;;9.13;5.65;;;20.60;26.10;;;;;;4946901;28;20060;-62
2024/01/21 10:08:00;;;;;;;15.65;5.30;;;20.70;26.10;;;;;;4945155;29;20054;-63
2024/01/21 10:10:28;;;;;;;23.13;12.65;;;20.70;26.10;;;;;;4944393;28;20496;-62
2024/01/21 10:12:55;;;;;;;31.80;15.25;;;20.80;26.20;;;;;;4944319;28;20063;-61
2024/01/21 10:15:22;;;;;;;18.85;11.45;;;20.80;26.10;;;;;;4946366;29;20059;-64
2024/01/21 10:17:51;;;;;;;23.88;10.50;;;20.90;26.20;;;;;;4944279;28;20055;-64
2024/01/21 10:20:19;;;;;;;22.85;10.48;;;21.00;26.20;;;;;;4945281;28;20062;-63
2024/01/21 10:22:48;;;;;;;21.13;10.27;;;21.00;26.10;;;;;;4948440;28;20416;-62
2024/01/21 10:25:16;;;;;;;21.13;9.32;;;21.10;26.20;;;;;;4944307;28;20078;-63
2024/01/21 10:27:46;;;;;;;20.08;8.55;;;21.10;26.10;;;;;;4946167;28;20412;-64
2024/01/21 10:30:14;;;;;;;15.80;7.85;;;21.20;26.10;;;;;;4945628;28;20636;-68
2024/01/21 10:32:41;;;;;;;13.05;8.02;;;21.20;26.00;;;;;;4943829;28;20062;-65
2024/01/21 10:35:08;;;;;;;11.68;7.20;;;21.20;25.90;;;;;;4945649;28;20051;-66
2024/01/21 10:37:39;;;;;;;12.80;7.55;;;21.20;25.80;;;;;;4947849;28;20058;-66
2024/01/21 10:40:09;;;;;;;11.45;6.95;;;21.20;25.70;;;;;;4947033;28;20051;-66
2024/01/21 10:42:40;;;;;;;11.73;7.25;;;21.20;25.60;;;;;;4947532;28;20526;-66
2024/01/21 10:45:08;;;;;;;10.23;6.35;;;21.20;25.60;;;;;;4947660;28;20058;-64
2024/01/21 10:47:36;;;;;;;11.55;6.82;;;21.20;25.50;;;;;;4936960;28;20059;-64
2024/01/21 10:50:05;;;;;;;10.32;6.80;;;21.20;25.50;;;;;;4943129;28;20070;-63
2024/01/21 10:52:33;;;;;;;10.00;6.78;;;21.10;25.50;;;;;;4943086;28;20132;-64
2024/01/21 10:55:00;;;;;;;11.95;6.93;;;21.00;25.40;;;;;;4944345;28;20055;-66
2024/01/21 10:57:27;;;;;;;11.05;6.50;;;21.00;25.50;;;;;;4944962;28;20503;-65
2024/01/21 10:59:56;;;;;;;8.98;6.45;;;21.00;25.40;;;;;;4944110;28;20591;-63
2024/01/21 11:02:23;;;;;;;9.32;6.25;;;21.00;25.50;;;;;;4940374;28;20051;-66
2024/01/21 11:04:50;;;;;;;9.02;6.15;;;20.90;25.40;;;;;;4942415;28;20051;-62
2024/01/21 11:07:19;;;;;;;11.35;7.70;;;20.90;25.50;;;;;;4943506;28;20051;-61
2024/01/21 11:09:48;;;;;;;12.10;7.68;;;20.80;24.70;;;;;;4946263;28;20051;-61
2024/01/21 11:12:15;;;;;;;17.42;6.90;;;20.70;24.80;;;;;;4949926;28;20122;-61
2024/01/21 11:14:43;;;;;;;24.52;7.38;;;20.60;25.20;;;;;;4950907;28;21011;-61
2024/01/21 11:17:15;;;;;;;23.20;6.55;;;20.50;26.00;;;;;;4954817;28;20055;-60
2024/01/21 11:19:45;;;;;;;12.65;5.75;;;20.50;26.40;;;;;;4951574;28;20055;-61
2024/01/21 11:22:13;;;;;;;9.60;6.00;;;20.40;26.70;;;;;;4951454;28;20051;-61
2024/01/21 11:24:41;;;;;;;9.38;5.80;;;20.40;27.00;;;;;;4950570;28;20071;-62
2024/01/21 11:27:16;;;;;;;11.48;4.93;;;20.40;27.20;;;;;;4948332;29;20059;-60
2024/01/21 11:29:44;;;;;;;21.95;6.78;;;20.40;27.40;;;;;;4947856;28;20756;-61
2024/01/21 11:32:13;;;;;;;15.05;6.68;;;20.40;27.40;;;;;;4950654;28;20055;-60
2024/01/21 11:34:42;;;;;;;26.85;6.10;;;20.40;27.60;;;;;;4951138;28;20062;-62
2024/01/21 11:37:12;;;;;;;19.20;6.10;;;20.40;27.70;;;;;;4952994;28;20059;-65
2024/01/21 11:39:39;;;;;;;13.50;5.72;;;20.40;27.80;;;;;;4954958;28;20460;-62
2024/01/21 11:42:07;;;;;;;11.50;6.05;;;20.40;27.90;;;;;;4951852;28;20074;-62
2024/01/21 11:44:35;;;;;;;18.88;5.80;;;20.40;27.90;;;;;;4948654;28;20055;-64
2024/01/21 11:47:04;;;;;;;13.38;6.53;;;20.40;27.90;;;;;;4951663;28;20059;-63
2024/01/21 11:49:34;;;;;;;9.77;6.00;;;20.40;28.00;;;;;;4956199;28;20059;-62
2024/01/21 11:52:05;;;;;;;14.05;5.55;;;20.40;28.00;;;;;;4953477;28;20051;-61
2024/01/21 11:54:33;;;;;;;19.17;5.60;;;20.50;28.30;;;;;;4947768;28;20051;-61
2024/01/21 11:57:01;;;;;;;42.78;6.70;;;20.50;28.40;;;;;;4947791;28;20062;-61
2024/01/21 11:59:29;;;;;;;13.90;6.32;;;20.50;28.70;;;;;;4950709;28;20403;-61
2024/01/21 12:01:57;;;;;;;14.48;5.85;;;20.60;28.60;;;;;;4954775;28;20412;-62
2024/01/21 12:04:26;;;;;;;13.15;6.47;;;20.60;28.60;;;;;;4947786;28;20059;-63
2024/01/21 12:06:55;;;;;;;15.02;7.15;;;20.60;28.80;;;;;;4946445;28;20051;-62
2024/01/21 12:09:23;;;;;;;9.85;6.68;;;20.60;29.20;;;;;;4950420;28;20055;-62
2024/01/21 12:11:55;;;;;;;12.15;6.30;;;20.60;28.70;;;;;;4949481;28;20056;-62
2024/01/21 12:14:23;;;;;;;19.30;6.50;;;20.60;28.70;;;;;;4958525;28;20055;-62
2024/01/21 12:16:51;;;;;;;16.45;6.75;;;20.60;28.70;;;;;;4956741;28;20051;-62
2024/01/21 12:19:18;;;;;;;16.20;7.35;;;20.60;28.80;;;;;;4952533;28;20062;-62
2024/01/21 12:21:47;;;;;;;14.07;7.85;;;20.60;28.90;;;;;;4953119;28;20440;-62
2024/01/21 12:24:16;;;;;;;10.30;6.72;;;20.60;29.00;;;;;;4951443;28;20058;-63
2024/01/21 12:26:45;;;;;;;12.07;7.20;;;20.50;29.20;;;;;;4951447;28;20512;-62
2024/01/21 12:29:13;;;;;;;9.88;6.32;;;20.50;29.60;;;;;;4951983;29;20054;-62
2024/01/21 12:31:42;;;;;;;11.20;6.85;;;20.50;29.60;;;;;;4951156;29;20060;-62
2024/01/21 12:34:11;;;;;;;10.13;6.32;;;20.50;29.60;;;;;;4949886;28;20122;-62
2024/01/21 12:36:41;;;;;;;11.20;6.90;;;20.40;29.70;;;;;;4951983;28;20055;-63
2024/01/21 12:39:10;;;;;;;14.40;7.82;;;20.40;29.70;;;;;;4951971;28;20059;-63